Time;durP1;ratioP1;P1;durP2;ratioP2;P2;SDS_P1;SDS_P2;PMS_P1;PMS_P2;Temp;Humidity;BMP_temperature;BMP_pressure;BME280_temperature;BME280_humidity;BME280_pressure;Samples;Min_cycle;Max_cycle;Signal;HPM_P1;HPM_P2
2023/12/13 00:00:41;;;;;;;124.17;27.57;;;8.30;99.90;;;;;;5096784;28;20086;-76
2023/12/13 00:03:06;;;;;;;56.00;21.53;;;8.20;99.90;;;;;;5096686;28;20051;-76
2023/12/13 00:05:32;;;;;;;121.63;25.97;;;8.30;99.90;;;;;;5095606;28;20436;-76
2023/12/13 00:07:58;;;;;;;56.20;19.70;;;8.20;99.90;;;;;;5096559;28;20052;-76
2023/12/13 00:10:23;;;;;;;80.80;23.63;;;8.20;99.90;;;;;;5095835;28;20047;-76
2023/12/13 00:12:49;;;;;;;89.40;24.63;;;8.20;99.90;;;;;;5096826;28;20044;-76
2023/12/13 00:15:15;;;;;;;109.90;25.73;;;8.20;99.90;;;;;;5078218;28;20484;-75
2023/12/13 00:17:41;;;;;;;91.97;24.00;;;8.20;99.90;;;;;;5096384;28;20040;-76
2023/12/13 00:20:07;;;;;;;83.40;23.83;;;8.20;99.90;;;;;;5094505;28;20044;-76
2023/12/13 00:22:33;;;;;;;63.43;21.03;;;8.20;99.90;;;;;;5097156;28;20306;-76
2023/12/13 00:24:59;;;;;;;74.87;20.57;;;8.20;99.90;;;;;;5096272;28;20685;-76
2023/12/13 00:27:25;;;;;;;66.27;20.53;;;8.20;99.90;;;;;;5095537;28;20118;-76
2023/12/13 00:29:51;;;;;;;99.30;24.50;;;8.20;99.90;;;;;;5096233;28;20314;-75
2023/12/13 00:32:16;;;;;;;94.73;22.67;;;8.20;99.90;;;;;;5096154;28;20480;-75
2023/12/13 00:34:42;;;;;;;114.43;24.47;;;8.20;99.90;;;;;;5096119;28;20044;-76
2023/12/13 00:37:08;;;;;;;110.60;25.23;;;8.20;99.90;;;;;;5096317;28;20044;-76
2023/12/13 00:39:33;;;;;;;87.00;25.13;;;8.20;99.90;;;;;;5096580;28;20055;-76
2023/12/13 00:41:59;;;;;;;93.50;26.03;;;8.20;99.90;;;;;;5096000;28;20044;-76
2023/12/13 00:44:25;;;;;;;130.50;27.90;;;8.20;99.90;;;;;;5095893;28;20495;-76
2023/12/13 00:46:50;;;;;;;83.50;23.73;;;8.20;99.90;;;;;;5096387;28;20044;-76
2023/12/13 00:49:16;;;;;;;94.37;25.80;;;8.20;99.90;;;;;;5095738;28;20040;-76
2023/12/13 00:51:42;;;;;;;85.37;26.93;;;8.20;99.90;;;;;;5095637;28;20138;-76
2023/12/13 00:54:08;;;;;;;101.13;27.60;;;8.20;99.90;;;;;;5094272;28;20182;-76
2023/12/13 00:56:36;;;;;;;101.43;26.57;;;8.20;99.90;;;;;;5095981;28;20044;-76
2023/12/13 00:59:01;;;;;;;142.10;29.47;;;8.20;99.90;;;;;;5094523;28;20367;-76
2023/12/13 01:01:27;;;;;;;69.40;24.97;;;8.20;99.90;;;;;;5094490;28;20662;-76
2023/12/13 01:03:52;;;;;;;88.03;27.33;;;8.20;99.90;;;;;;5094821;28;20056;-76
2023/12/13 01:06:18;;;;;;;82.70;25.93;;;8.20;99.90;;;;;;5095284;28;20460;-76
2023/12/13 01:08:44;;;;;;;116.33;30.10;;;8.20;99.90;;;;;;5094765;28;20044;-76
2023/12/13 01:11:10;;;;;;;103.43;28.87;;;8.20;99.90;;;;;;5095757;28;20048;-76
2023/12/13 01:13:36;;;;;;;98.63;29.57;;;8.20;99.90;;;;;;5095787;28;20397;-76
2023/12/13 01:16:02;;;;;;;85.70;29.17;;;8.20;99.90;;;;;;5095196;28;20271;-76
2023/12/13 01:18:27;;;;;;;97.10;30.47;;;8.20;99.90;;;;;;5095116;28;20134;-75
2023/12/13 01:20:53;;;;;;;112.53;32.20;;;8.20;99.90;;;;;;5095511;28;20043;-76
2023/12/13 01:23:19;;;;;;;77.50;28.67;;;8.20;99.90;;;;;;5095189;28;20377;-75
2023/12/13 01:25:44;;;;;;;109.90;31.90;;;8.20;99.90;;;;;;5094568;28;20044;-75
2023/12/13 01:28:10;;;;;;;86.50;29.00;;;8.20;99.90;;;;;;5095039;28;20048;-75
2023/12/13 01:30:36;;;;;;;91.43;30.40;;;8.20;99.90;;;;;;5094972;28;20055;-75
2023/12/13 01:33:01;;;;;;;110.60;31.43;;;8.20;99.90;;;;;;5093975;28;20051;-75
2023/12/13 01:35:27;;;;;;;99.40;30.70;;;8.20;99.90;;;;;;5094903;28;20396;-75
2023/12/13 01:37:53;;;;;;;101.10;29.93;;;8.20;99.90;;;;;;5095730;28;20460;-75
2023/12/13 01:40:19;;;;;;;153.50;34.33;;;8.10;99.90;;;;;;5094855;28;20048;-75
2023/12/13 01:42:44;;;;;;;144.30;33.83;;;8.10;99.90;;;;;;5095312;28;20046;-75
2023/12/13 01:45:10;;;;;;;95.33;31.00;;;8.10;99.90;;;;;;5094790;28;20055;-75
2023/12/13 01:47:38;;;;;;;102.70;28.83;;;8.20;99.90;;;;;;5093391;28;20127;-75
2023/12/13 01:50:04;;;;;;;208.57;37.57;;;8.10;99.90;;;;;;5094686;28;20051;-75
2023/12/13 01:52:30;;;;;;;84.67;28.73;;;8.10;99.90;;;;;;5095047;28;20278;-75
2023/12/13 01:54:56;;;;;;;101.10;30.47;;;8.10;99.90;;;;;;5094201;28;20347;-76
2023/12/13 01:57:22;;;;;;;138.47;33.50;;;8.20;99.90;;;;;;5093281;28;20278;-76
2023/12/13 01:59:48;;;;;;;140.67;33.80;;;8.20;99.90;;;;;;5093219;28;20056;-76
2023/12/13 02:02:14;;;;;;;122.57;33.77;;;8.20;99.90;;;;;;5093689;28;20282;-76
2023/12/13 02:04:42;;;;;;;116.60;32.80;;;8.20;99.90;;;;;;5094391;28;20052;-76
2023/12/13 02:07:08;;;;;;;156.97;35.17;;;8.10;99.90;;;;;;5094233;28;20055;-77
2023/12/13 02:09:34;;;;;;;112.30;33.13;;;8.20;99.90;;;;;;5094283;28;20274;-76
2023/12/13 02:12:00;;;;;;;128.43;32.20;;;8.20;99.90;;;;;;5093296;28;20048;-77
2023/12/13 02:14:26;;;;;;;115.80;32.33;;;8.20;99.90;;;;;;5094478;28;20507;-76
2023/12/13 02:16:53;;;;;;;116.47;32.57;;;8.10;99.90;;;;;;5094206;28;20270;-76
2023/12/13 02:19:19;;;;;;;98.33;30.43;;;8.10;99.90;;;;;;5094183;28;20307;-76
2023/12/13 02:21:44;;;;;;;135.00;34.43;;;8.20;99.90;;;;;;5094620;28;20339;-76
2023/12/13 02:24:11;;;;;;;128.30;32.73;;;8.20;99.90;;;;;;5093801;28;20278;-76
2023/12/13 02:26:43;;;;;;;113.47;32.83;;;8.20;99.90;;;;;;5093967;28;20496;-76
2023/12/13 02:29:09;;;;;;;110.53;30.53;;;8.20;99.90;;;;;;5094013;28;20293;-76
2023/12/13 02:31:35;;;;;;;89.93;31.03;;;8.20;99.90;;;;;;5093937;28;20282;-76
2023/12/13 02:34:01;;;;;;;93.43;30.57;;;8.20;99.90;;;;;;5093977;28;20274;-76
2023/12/13 02:36:27;;;;;;;112.70;31.97;;;8.20;99.90;;;;;;5092626;28;20351;-76
2023/12/13 02:38:52;;;;;;;99.93;31.27;;;8.20;99.90;;;;;;5094188;28;20044;-76
2023/12/13 02:41:19;;;;;;;77.27;28.50;;;8.20;99.90;;;;;;5093681;28;20132;-77
2023/12/13 02:43:45;;;;;;;130.17;32.73;;;8.20;99.90;;;;;;5093453;28;20051;-76
2023/12/13 02:46:11;;;;;;;148.23;33.67;;;8.20;99.90;;;;;;5093731;28;20298;-77
2023/12/13 02:48:37;;;;;;;82.00;30.47;;;8.20;99.90;;;;;;5093711;28;20322;-77
2023/12/13 02:51:03;;;;;;;120.50;30.20;;;8.20;99.90;;;;;;5092650;28;20044;-77
2023/12/13 02:53:29;;;;;;;161.43;35.33;;;8.20;99.90;;;;;;5093717;28;20052;-77
2023/12/13 02:55:54;;;;;;;153.83;34.23;;;8.20;99.90;;;;;;5093718;28;20290;-77
2023/12/13 02:58:21;;;;;;;110.47;33.00;;;8.20;99.90;;;;;;5093306;28;20078;-77
2023/12/13 03:00:48;;;;;;;129.97;34.23;;;8.20;99.90;;;;;;5093478;28;20043;-77
2023/12/13 03:03:13;;;;;;;108.53;32.70;;;8.20;99.90;;;;;;5093459;28;20317;-78
2023/12/13 03:05:39;;;;;;;117.83;32.50;;;8.20;99.90;;;;;;5093325;28;20340;-76
2023/12/13 03:08:05;;;;;;;117.20;31.60;;;8.20;99.90;;;;;;5092482;28;20471;-76
2023/12/13 03:10:30;;;;;;;130.07;32.50;;;8.20;99.90;;;;;;5093407;28;20048;-76
2023/12/13 03:12:56;;;;;;;78.63;27.80;;;8.20;99.90;;;;;;5094128;28;20459;-76
2023/12/13 03:15:22;;;;;;;103.23;32.73;;;8.20;99.90;;;;;;5092522;28;20130;-76
2023/12/13 03:17:47;;;;;;;105.17;30.43;;;8.20;99.90;;;;;;5093418;28;20101;-76
2023/12/13 03:20:13;;;;;;;88.57;28.87;;;8.20;99.90;;;;;;5093490;28;20051;-76
2023/12/13 03:22:39;;;;;;;84.00;27.40;;;8.20;99.90;;;;;;5093344;28;20044;-76
2023/12/13 03:25:05;;;;;;;75.80;26.37;;;8.20;99.90;;;;;;5092544;28;20048;-76
2023/12/13 03:27:31;;;;;;;83.03;27.97;;;8.20;99.90;;;;;;5093355;28;20039;-76
2023/12/13 03:29:56;;;;;;;83.03;29.60;;;8.20;99.90;;;;;;5093438;28;20274;-76
2023/12/13 03:32:22;;;;;;;189.50;37.03;;;8.20;99.90;;;;;;5093098;28;20048;-77
2023/12/13 03:34:48;;;;;;;102.37;30.53;;;8.20;99.90;;;;;;5076456;28;20052;-76
2023/12/13 03:37:15;;;;;;;98.90;31.67;;;8.20;99.90;;;;;;5093378;28;20040;-76
2023/12/13 03:39:41;;;;;;;98.70;30.13;;;8.20;99.90;;;;;;5093284;28;20050;-76
2023/12/13 03:42:06;;;;;;;79.20;28.57;;;8.20;99.90;;;;;;5093838;28;20602;-76
2023/12/13 03:44:32;;;;;;;83.07;28.50;;;8.20;99.90;;;;;;5093819;28;20067;-76
2023/12/13 03:46:58;;;;;;;117.70;31.87;;;8.20;99.90;;;;;;5093114;28;20044;-75
2023/12/13 03:49:23;;;;;;;72.53;28.27;;;8.20;99.90;;;;;;5093226;28;20085;-76
2023/12/13 03:51:49;;;;;;;88.27;30.73;;;8.20;99.90;;;;;;5093115;28;20074;-76
2023/12/13 03:54:15;;;;;;;88.43;29.60;;;8.10;99.90;;;;;;5093475;28;20101;-76
2023/12/13 03:56:42;;;;;;;82.37;29.30;;;8.20;99.90;;;;;;5096277;28;20123;-76
2023/12/13 03:59:08;;;;;;;87.50;29.40;;;8.20;99.90;;;;;;5096145;28;20320;-76
2023/12/13 04:01:34;;;;;;;61.43;27.83;;;8.20;99.90;;;;;;5096724;28;20281;-76
2023/12/13 04:04:00;;;;;;;109.17;32.93;;;8.20;99.90;;;;;;5095352;28;20282;-76
2023/12/13 04:06:25;;;;;;;109.00;33.17;;;8.20;99.90;;;;;;5096649;28;20080;-76
2023/12/13 04:08:51;;;;;;;83.10;30.67;;;8.20;99.90;;;;;;5096611;28;20051;-76
2023/12/13 04:11:17;;;;;;;59.30;25.77;;;8.20;99.90;;;;;;5096549;28;20517;-76
2023/12/13 04:13:42;;;;;;;106.10;32.20;;;8.20;99.90;;;;;;5095838;28;20472;-76
2023/12/13 04:16:08;;;;;;;78.77;30.13;;;8.20;99.90;;;;;;5078639;28;20052;-76
2023/12/13 04:18:35;;;;;;;60.70;26.57;;;8.20;99.90;;;;;;5096397;28;20043;-76
2023/12/13 04:21:01;;;;;;;95.17;29.17;;;8.20;99.90;;;;;;5097220;28;20668;-76
2023/12/13 04:23:27;;;;;;;99.50;32.30;;;8.10;99.90;;;;;;5096854;28;20365;-76
2023/12/13 04:25:52;;;;;;;83.57;30.93;;;8.20;99.90;;;;;;5095186;28;20388;-76
2023/12/13 04:28:18;;;;;;;115.73;33.90;;;8.20;99.90;;;;;;5096261;28;20059;-76
2023/12/13 04:30:44;;;;;;;97.07;32.73;;;8.20;99.90;;;;;;5096271;28;20101;-76
2023/12/13 04:33:10;;;;;;;85.67;28.00;;;8.20;99.90;;;;;;5095856;28;20047;-76
2023/12/13 04:35:35;;;;;;;98.37;31.07;;;8.20;99.90;;;;;;5095866;28;20087;-76
2023/12/13 04:38:01;;;;;;;60.77;27.33;;;8.20;99.90;;;;;;5096068;28;20036;-76
2023/12/13 04:40:28;;;;;;;115.33;32.10;;;8.20;99.90;;;;;;5095965;28;20040;-76
2023/12/13 04:42:54;;;;;;;168.20;35.70;;;8.10;99.90;;;;;;5095258;28;20044;-77
2023/12/13 04:45:19;;;;;;;68.13;27.70;;;8.10;99.90;;;;;;5095921;28;20815;-76
2023/12/13 04:47:45;;;;;;;79.93;28.00;;;8.10;99.90;;;;;;5096354;28;20036;-76
2023/12/13 04:50:11;;;;;;;94.83;29.87;;;8.10;99.90;;;;;;5095521;28;20542;-77
2023/12/13 04:52:37;;;;;;;95.00;30.53;;;8.20;99.90;;;;;;5095656;28;20290;-76
2023/12/13 04:55:03;;;;;;;66.53;28.20;;;8.10;99.90;;;;;;5095885;28;20056;-76
2023/12/13 04:57:29;;;;;;;102.53;32.13;;;8.10;99.90;;;;;;5095638;28;20052;-77
2023/12/13 04:59:55;;;;;;;126.07;34.87;;;8.20;99.90;;;;;;5095590;28;20430;-77
2023/12/13 05:02:21;;;;;;;69.30;28.67;;;8.10;99.90;;;;;;5095622;28;20056;-77
2023/12/13 05:04:47;;;;;;;129.77;34.47;;;8.10;99.90;;;;;;5095542;28;20476;-77
2023/12/13 05:07:12;;;;;;;97.77;31.00;;;8.10;99.90;;;;;;5096067;28;20059;-76
2023/12/13 05:09:38;;;;;;;129.50;35.80;;;8.10;99.90;;;;;;5095409;28;20290;-76
2023/12/13 05:12:04;;;;;;;66.20;27.30;;;8.10;99.90;;;;;;5095598;28;20086;-76
2023/12/13 05:14:30;;;;;;;128.13;33.63;;;8.10;99.90;;;;;;5095570;28;20560;-76
2023/12/13 05:16:56;;;;;;;119.27;34.83;;;8.20;99.90;;;;;;5095213;28;20357;-76
2023/12/13 05:19:22;;;;;;;87.57;32.40;;;8.10;99.90;;;;;;5095241;28;20282;-76
2023/12/13 05:21:47;;;;;;;81.87;31.33;;;8.10;99.90;;;;;;5095708;28;20052;-76
2023/12/13 05:24:13;;;;;;;76.90;28.53;;;8.10;99.90;;;;;;5095139;28;20043;-76
2023/12/13 05:26:39;;;;;;;109.90;32.00;;;8.20;99.90;;;;;;5095656;28;20044;-76
2023/12/13 05:29:05;;;;;;;80.60;29.90;;;8.10;99.90;;;;;;5095047;28;20052;-77
2023/12/13 05:31:30;;;;;;;99.37;31.63;;;8.20;99.90;;;;;;5095069;28;20054;-77
2023/12/13 05:33:56;;;;;;;107.57;31.93;;;8.10;99.90;;;;;;5095471;28;20118;-76
2023/12/13 05:36:22;;;;;;;92.43;31.20;;;8.10;99.90;;;;;;5095461;28;20396;-76
2023/12/13 05:38:48;;;;;;;81.47;30.70;;;8.10;99.90;;;;;;5094831;28;20048;-76
2023/12/13 05:41:13;;;;;;;169.70;40.40;;;8.10;99.90;;;;;;5093938;28;20048;-77
2023/12/13 05:43:39;;;;;;;95.10;33.67;;;8.10;99.90;;;;;;5094771;28;20282;-77
2023/12/13 05:46:07;;;;;;;96.87;31.90;;;8.10;99.90;;;;;;5095506;28;20036;-77
2023/12/13 05:48:33;;;;;;;121.70;36.13;;;8.10;99.90;;;;;;5094797;28;20305;-77
2023/12/13 05:50:59;;;;;;;91.17;32.90;;;8.10;99.90;;;;;;5095064;28;20740;-77
2023/12/13 05:53:25;;;;;;;87.30;31.83;;;8.20;99.90;;;;;;5094550;28;20051;-78
2023/12/13 05:55:51;;;;;;;83.13;31.23;;;8.10;99.90;;;;;;5094243;28;20746;-77
2023/12/13 05:58:17;;;;;;;154.03;38.87;;;8.10;99.90;;;;;;5094562;28;20147;-77
2023/12/13 06:00:43;;;;;;;101.30;33.50;;;8.20;99.90;;;;;;5094371;28;20766;-77
2023/12/13 06:03:09;;;;;;;89.30;33.17;;;8.20;99.90;;;;;;5094757;28;20064;-77
2023/12/13 06:05:35;;;;;;;106.87;33.60;;;8.10;99.90;;;;;;5094261;28;20087;-77
2023/12/13 06:08:01;;;;;;;76.87;32.33;;;8.10;99.90;;;;;;5094334;28;20310;-77
2023/12/13 06:10:27;;;;;;;130.53;36.33;;;8.10;99.90;;;;;;5094290;28;20666;-78
2023/12/13 06:12:53;;;;;;;112.47;33.00;;;8.10;99.90;;;;;;5094016;28;20047;-77
2023/12/13 06:15:19;;;;;;;134.93;37.17;;;8.20;99.90;;;;;;5095101;28;20082;-77
2023/12/13 06:17:45;;;;;;;89.67;34.47;;;8.20;99.90;;;;;;5093865;28;20040;-77
2023/12/13 06:20:11;;;;;;;81.87;31.17;;;8.20;99.90;;;;;;5094141;28;20345;-77
2023/12/13 06:22:37;;;;;;;118.27;38.50;;;8.20;99.90;;;;;;5093986;28;20445;-77
2023/12/13 06:25:03;;;;;;;93.80;33.37;;;8.20;99.90;;;;;;5094070;28;20282;-77
2023/12/13 06:27:29;;;;;;;90.50;35.20;;;8.10;99.90;;;;;;5093962;28;20043;-77
2023/12/13 06:29:54;;;;;;;107.57;34.97;;;8.10;99.90;;;;;;5093985;28;20373;-77
2023/12/13 06:32:20;;;;;;;98.27;32.77;;;8.20;99.90;;;;;;5094022;28;20066;-77
2023/12/13 06:34:46;;;;;;;133.80;36.87;;;8.10;99.90;;;;;;5093168;28;20044;-77
2023/12/13 06:37:12;;;;;;;171.20;39.93;;;8.10;99.90;;;;;;5093792;28;20043;-77
2023/12/13 06:39:38;;;;;;;121.57;37.73;;;8.20;99.90;;;;;;5094632;28;20189;-77
2023/12/13 06:42:10;;;;;;;100.87;35.27;;;8.20;99.90;;;;;;5091972;28;20059;-77
2023/12/13 06:44:37;;;;;;;104.23;37.00;;;8.10;99.90;;;;;;5092834;28;20122;-77
2023/12/13 06:47:03;;;;;;;103.77;35.77;;;8.10;99.90;;;;;;5093752;28;20372;-77
2023/12/13 06:49:31;;;;;;;154.70;39.57;;;8.10;99.90;;;;;;5093812;28;20297;-77
2023/12/13 06:51:57;;;;;;;115.60;36.07;;;8.20;99.90;;;;;;5092763;28;20281;-77
2023/12/13 06:54:23;;;;;;;90.77;33.97;;;8.10;99.90;;;;;;5093560;28;20808;-77
2023/12/13 06:56:49;;;;;;;168.13;40.07;;;8.10;99.90;;;;;;5093792;28;20412;-77
2023/12/13 06:59:15;;;;;;;86.47;33.40;;;8.20;99.90;;;;;;5093650;28;20044;-77
2023/12/13 07:01:40;;;;;;;135.37;35.17;;;8.10;99.90;;;;;;5093748;28;20048;-77
2023/12/13 07:04:06;;;;;;;200.30;41.43;;;8.20;99.90;;;;;;5093418;28;20274;-77
2023/12/13 07:06:32;;;;;;;93.17;34.93;;;8.10;99.90;;;;;;5093560;28;20075;-77
2023/12/13 07:08:59;;;;;;;102.00;35.57;;;8.10;99.90;;;;;;5093553;28;20148;-77
2023/12/13 07:11:25;;;;;;;108.67;34.70;;;8.10;99.90;;;;;;5093743;28;20395;-77
2023/12/13 07:13:51;;;;;;;118.47;35.20;;;8.20;99.90;;;;;;5093796;28;20777;-77
2023/12/13 07:16:17;;;;;;;93.97;34.17;;;8.10;99.90;;;;;;5093794;28;20328;-77
2023/12/13 07:18:43;;;;;;;71.07;30.57;;;8.10;99.90;;;;;;5094074;28;20290;-77
2023/12/13 07:21:08;;;;;;;115.03;34.63;;;8.10;99.90;;;;;;5093186;28;20040;-77
2023/12/13 07:23:35;;;;;;;80.60;32.17;;;8.10;99.90;;;;;;5094091;28;20047;-78
2023/12/13 07:26:02;;;;;;;82.67;32.07;;;8.10;99.90;;;;;;5093173;28;20119;-77
2023/12/13 07:28:29;;;;;;;123.17;36.80;;;8.20;99.90;;;;;;5093675;28;20278;-78
2023/12/13 07:30:57;;;;;;;142.87;38.47;;;8.10;99.90;;;;;;5094873;28;20282;-78
2023/12/13 07:33:23;;;;;;;123.93;36.83;;;8.10;99.90;;;;;;5098111;28;20351;-77
2023/12/13 07:35:49;;;;;;;77.97;32.33;;;8.20;99.90;;;;;;5097873;28;20278;-78
2023/12/13 07:38:15;;;;;;;119.83;37.30;;;8.20;99.90;;;;;;5097199;28;20335;-77
2023/12/13 07:40:44;;;;;;;138.07;37.57;;;8.20;99.90;;;;;;5097450;28;20274;-78
2023/12/13 07:43:11;;;;;;;87.23;33.07;;;8.20;99.90;;;;;;5097433;28;20052;-78
2023/12/13 07:45:37;;;;;;;87.37;32.10;;;8.20;99.90;;;;;;5097664;28;20579;-78
2023/12/13 07:48:03;;;;;;;78.63;31.53;;;8.20;99.90;;;;;;5097305;28;20274;-78
2023/12/13 07:50:29;;;;;;;82.63;32.47;;;8.20;99.90;;;;;;5095836;28;20627;-78
2023/12/13 07:52:56;;;;;;;108.80;33.63;;;8.10;99.90;;;;;;5097512;28;20051;-78
2023/12/13 07:55:23;;;;;;;160.97;39.97;;;8.10;99.90;;;;;;5097080;28;20305;-77
2023/12/13 07:57:49;;;;;;;87.67;33.53;;;8.20;99.90;;;;;;5096814;28;20281;-78
2023/12/13 08:00:15;;;;;;;118.13;35.73;;;8.20;99.90;;;;;;5096818;28;20770;-78
2023/12/13 08:02:41;;;;;;;92.37;34.27;;;8.10;99.90;;;;;;5095700;28;20403;-78
2023/12/13 08:05:08;;;;;;;69.30;30.77;;;8.10;99.90;;;;;;5096568;28;20286;-77
2023/12/13 08:07:35;;;;;;;103.23;34.30;;;8.10;99.90;;;;;;5097218;28;20040;-77
2023/12/13 08:10:03;;;;;;;87.57;34.47;;;8.10;99.90;;;;;;5096016;28;20274;-78
2023/12/13 08:12:28;;;;;;;98.43;34.50;;;8.20;99.90;;;;;;5096567;28;20282;-78
2023/12/13 08:14:54;;;;;;;99.17;35.07;;;8.20;99.90;;;;;;5095798;28;20297;-78
2023/12/13 08:17:20;;;;;;;118.27;35.20;;;8.20;99.90;;;;;;5078366;28;20468;-77
2023/12/13 08:19:46;;;;;;;112.97;36.17;;;8.20;99.90;;;;;;5096129;28;20087;-77
2023/12/13 08:22:12;;;;;;;88.80;34.23;;;8.20;99.90;;;;;;5096425;28;20313;-77
2023/12/13 08:24:37;;;;;;;109.37;36.80;;;8.20;99.90;;;;;;5096337;28;20139;-77
2023/12/13 08:27:03;;;;;;;81.73;35.37;;;8.20;99.90;;;;;;5095428;28;20044;-78
2023/12/13 08:29:30;;;;;;;152.30;40.30;;;8.20;99.90;;;;;;5095324;28;20064;-77
2023/12/13 08:31:56;;;;;;;82.67;34.50;;;8.20;99.90;;;;;;5096543;28;20396;-77
2023/12/13 08:34:22;;;;;;;83.83;35.13;;;8.20;99.90;;;;;;5094934;28;20286;-77
2023/12/13 08:36:47;;;;;;;120.30;37.77;;;8.20;99.90;;;;;;5096206;28;20044;-77
2023/12/13 08:39:14;;;;;;;84.57;33.83;;;8.20;99.90;;;;;;5095703;28;20385;-77
2023/12/13 08:41:39;;;;;;;103.20;36.50;;;8.20;99.90;;;;;;5095954;28;20107;-77
2023/12/13 08:44:05;;;;;;;101.47;34.83;;;8.20;99.90;;;;;;5096031;28;20750;-80
2023/12/13 08:46:31;;;;;;;123.50;38.03;;;8.20;99.90;;;;;;5095457;28;20048;-77
2023/12/13 08:48:56;;;;;;;108.37;41.13;;;8.20;99.90;;;;;;5095881;28;20092;-77
2023/12/13 08:51:23;;;;;;;114.13;38.77;;;8.20;99.90;;;;;;5095905;28;20067;-77
2023/12/13 08:53:52;;;;;;;91.53;36.57;;;8.30;99.90;;;;;;5095808;28;20183;-77
2023/12/13 08:56:18;;;;;;;106.43;38.27;;;8.30;99.90;;;;;;5094398;28;20289;-78
2023/12/13 08:58:44;;;;;;;139.13;42.53;;;8.20;99.90;;;;;;5095691;28;20278;-74
2023/12/13 09:01:09;;;;;;;118.83;41.37;;;8.30;99.90;;;;;;5096518;28;20040;-76
2023/12/13 09:03:35;;;;;;;162.37;44.00;;;8.30;99.90;;;;;;5096215;28;20052;-74
2023/12/13 09:06:01;;;;;;;105.20;39.67;;;8.30;99.90;;;;;;5095535;28;20044;-74
2023/12/13 09:08:27;;;;;;;84.57;38.07;;;8.40;99.90;;;;;;5096067;28;20040;-74
2023/12/13 09:10:52;;;;;;;88.50;37.70;;;8.40;99.90;;;;;;5095423;28;20047;-74
2023/12/13 09:13:18;;;;;;;132.33;40.70;;;8.40;99.90;;;;;;5095110;28;20070;-74
2023/12/13 09:15:44;;;;;;;116.27;40.60;;;8.40;99.90;;;;;;5095314;28;20048;-74
2023/12/13 09:18:10;;;;;;;112.27;38.67;;;8.40;99.90;;;;;;5095351;28;20044;-74
2023/12/13 09:20:35;;;;;;;113.27;38.33;;;8.40;99.90;;;;;;5095303;28;20387;-74
2023/12/13 09:23:01;;;;;;;110.53;38.03;;;8.40;99.90;;;;;;5095012;28;20403;-74
2023/12/13 09:25:27;;;;;;;160.33;43.17;;;8.40;99.90;;;;;;5095149;28;20047;-75
2023/12/13 09:27:52;;;;;;;127.27;41.07;;;8.50;99.90;;;;;;5093780;28;20051;-74
2023/12/13 09:30:18;;;;;;;102.63;37.37;;;8.50;99.90;;;;;;5095617;28;20048;-75
2023/12/13 09:32:44;;;;;;;92.47;37.07;;;8.50;99.90;;;;;;5077125;28;20048;-75
2023/12/13 09:35:10;;;;;;;123.77;38.63;;;8.50;99.90;;;;;;5093770;28;20082;-75
2023/12/13 09:37:35;;;;;;;103.57;37.83;;;8.50;99.90;;;;;;5094924;28;20055;-75
2023/12/13 09:40:01;;;;;;;113.13;42.50;;;8.50;99.90;;;;;;5095647;28;20044;-75
2023/12/13 09:42:29;;;;;;;97.83;37.57;;;8.50;99.90;;;;;;5094833;28;20554;-75
2023/12/13 09:44:55;;;;;;;116.37;39.50;;;8.50;99.90;;;;;;5094783;28;20269;-75
2023/12/13 09:47:23;;;;;;;87.93;38.07;;;8.50;99.90;;;;;;5094715;28;20296;-75
2023/12/13 09:49:52;;;;;;;75.83;35.77;;;8.50;99.90;;;;;;5094255;28;20298;-75
2023/12/13 09:52:20;;;;;;;99.53;39.33;;;8.50;99.90;;;;;;5094533;28;20356;-76
2023/12/13 09:54:47;;;;;;;69.63;36.40;;;8.50;99.90;;;;;;5092748;28;20291;-75
2023/12/13 09:57:13;;;;;;;87.17;35.33;;;8.50;99.90;;;;;;5094520;28;20278;-75
2023/12/13 09:59:40;;;;;;;106.00;41.17;;;8.60;99.90;;;;;;5094509;28;20288;-75
2023/12/13 10:02:17;;;;;;;81.67;36.30;;;8.60;99.90;;;;;;5094479;28;20357;-75
2023/12/13 10:04:44;;;;;;;91.67;36.70;;;8.60;99.90;;;;;;5094454;28;20692;-75
2023/12/13 10:07:09;;;;;;;106.00;38.40;;;8.60;99.90;;;;;;5093192;28;20306;-74
2023/12/13 10:09:35;;;;;;;110.53;38.77;;;8.60;99.90;;;;;;5094916;28;20282;-74
2023/12/13 10:12:04;;;;;;;89.77;37.93;;;8.60;99.90;;;;;;5094370;28;20206;-74
2023/12/13 10:14:30;;;;;;;88.90;36.73;;;8.60;99.90;;;;;;5094777;28;20407;-72
2023/12/13 10:16:56;;;;;;;103.73;39.27;;;8.60;99.90;;;;;;5094149;28;20300;-77
2023/12/13 10:19:22;;;;;;;104.63;39.57;;;8.60;99.90;;;;;;5094217;28;20048;-78
2023/12/13 10:21:48;;;;;;;91.40;36.97;;;8.70;99.90;;;;;;5094087;28;20296;-78
2023/12/13 10:24:15;;;;;;;79.93;36.07;;;8.70;99.90;;;;;;5092855;28;20050;-77
2023/12/13 10:26:41;;;;;;;98.13;39.20;;;8.70;99.90;;;;;;5093951;28;20298;-76
2023/12/13 10:29:07;;;;;;;76.87;35.43;;;8.70;99.90;;;;;;5094037;28;20325;-77
2023/12/13 10:31:35;;;;;;;96.10;38.03;;;8.70;99.90;;;;;;5093965;28;20285;-77
2023/12/13 10:34:01;;;;;;;77.00;35.57;;;8.80;99.90;;;;;;5093008;28;20287;-83
2023/12/13 10:36:27;;;;;;;100.17;40.60;;;8.80;99.90;;;;;;5092925;28;20270;-83
2023/12/13 10:38:54;;;;;;;94.27;37.20;;;8.80;99.90;;;;;;5076185;28;20051;-77
2023/12/13 10:41:30;;;;;;;71.30;35.93;;;8.80;99.90;;;;;;5092751;28;20285;-77
2023/12/13 10:43:58;;;;;;;87.20;38.83;;;8.80;99.90;;;;;;5093901;28;20309;-82
2023/12/13 10:46:32;;;;;;;76.50;35.90;;;8.80;99.90;;;;;;5092725;28;20310;-85
2023/12/13 10:48:59;;;;;;;64.03;34.03;;;8.80;99.90;;;;;;5092705;28;20329;-76
2023/12/13 10:51:26;;;;;;;82.03;38.27;;;8.80;99.90;;;;;;5093769;28;20281;-82
2023/12/13 10:53:53;;;;;;;82.90;37.70;;;8.90;99.90;;;;;;5093745;28;20294;-80
2023/12/13 10:56:19;;;;;;;92.53;37.63;;;8.90;99.90;;;;;;5094915;28;20282;-83
2023/12/13 10:58:45;;;;;;;90.43;37.10;;;8.80;99.90;;;;;;5092517;28;20777;-78
2023/12/13 11:01:12;;;;;;;104.40;37.30;;;8.80;99.90;;;;;;5094235;28;20044;-73
2023/12/13 11:03:53;;;;;;;85.77;34.57;;;8.90;99.90;;;;;;5093904;28;20051;-79
2023/12/13 11:06:21;;;;;;;71.97;34.13;;;8.90;99.90;;;;;;5097669;28;20294;-78
2023/12/13 11:08:47;;;;;;;93.03;40.30;;;8.90;99.90;;;;;;5096385;28;20766;-76
2023/12/13 11:11:16;;;;;;;78.63;34.73;;;8.90;99.90;;;;;;5096772;28;20292;-76
2023/12/13 11:13:54;;;;;;;72.67;34.13;;;8.90;99.90;;;;;;5096505;28;20039;-77
2023/12/13 11:16:25;;;;;;;65.30;34.50;;;9.00;99.90;;;;;;5097538;28;20368;-79
2023/12/13 11:18:53;;;;;;;71.80;32.67;;;9.00;99.90;;;;;;5080099;28;20293;-79
2023/12/13 11:21:26;;;;;;;81.07;36.13;;;9.00;99.90;;;;;;5097609;28;20278;-76
2023/12/13 11:23:54;;;;;;;72.27;35.47;;;9.00;99.90;;;;;;5097808;28;20394;-77
2023/12/13 11:26:22;;;;;;;72.43;34.90;;;9.00;99.90;;;;;;5113691;28;20341;-75
2023/12/13 11:28:54;;;;;;;60.10;33.27;;;9.00;99.90;;;;;;5097424;28;20321;-75
2023/12/13 11:31:24;;;;;;;75.13;36.87;;;9.00;99.90;;;;;;5096427;28;20290;-74
2023/12/13 11:33:54;;;;;;;80.23;36.30;;;9.00;99.90;;;;;;5098243;28;20642;-76
2023/12/13 11:36:21;;;;;;;71.87;35.30;;;9.00;99.90;;;;;;5097892;28;20366;-74
2023/12/13 11:38:59;;;;;;;64.77;31.67;;;9.00;99.90;;;;;;5096012;28;20274;-74
2023/12/13 11:41:25;;;;;;;68.97;34.77;;;9.00;99.90;;;;;;5097228;28;20365;-74
2023/12/13 11:43:51;;;;;;;66.63;34.83;;;9.00;99.90;;;;;;5097128;28;20329;-75
2023/12/13 11:46:17;;;;;;;61.13;32.40;;;9.00;99.90;;;;;;5097022;28;20083;-74
2023/12/13 11:48:43;;;;;;;63.03;32.87;;;9.00;99.90;;;;;;5096325;28;20040;-74
2023/12/13 11:51:09;;;;;;;51.97;29.47;;;9.00;99.90;;;;;;5097035;28;20280;-77
2023/12/13 11:53:35;;;;;;;93.33;36.60;;;9.00;99.90;;;;;;5095965;28;20290;-76
2023/12/13 11:56:07;;;;;;;63.83;33.07;;;9.00;99.90;;;;;;5096777;28;20055;-74
2023/12/13 11:58:32;;;;;;;62.13;32.83;;;9.00;99.90;;;;;;5097699;28;20079;-76
2023/12/13 12:00:58;;;;;;;67.97;32.20;;;9.00;99.90;;;;;;5095683;28;20757;-78
2023/12/13 12:03:25;;;;;;;83.07;35.73;;;9.00;99.90;;;;;;5096822;28;20048;-77
2023/12/13 12:05:50;;;;;;;77.13;36.00;;;9.00;99.90;;;;;;5096567;28;20043;-77
2023/12/13 12:08:25;;;;;;;78.63;35.80;;;9.00;99.90;;;;;;5095668;28;20290;-80
2023/12/13 12:10:52;;;;;;;84.05;37.55;;;9.00;99.90;;;;;;5096505;28;20161;-81
2023/12/13 12:13:21;;;;;;;80.93;37.40;;;9.00;99.90;;;;;;5095930;28;20105;-74
2023/12/13 12:15:47;;;;;;;88.90;37.13;;;9.00;99.90;;;;;;5095877;28;20317;-76
2023/12/13 12:18:13;;;;;;;101.97;40.67;;;9.00;99.90;;;;;;5096135;28;20314;-76
2023/12/13 12:20:41;;;;;;;88.00;38.70;;;9.00;99.90;;;;;;5095673;28;20330;-76
2023/12/13 12:23:09;;;;;;;86.07;37.60;;;9.00;99.90;;;;;;5096349;28;20634;-76
2023/12/13 12:25:35;;;;;;;86.40;36.33;;;9.00;99.90;;;;;;5094985;28;20364;-76
2023/12/13 12:28:01;;;;;;;93.70;37.00;;;9.00;99.90;;;;;;5096483;28;20332;-76